Alhambra, Illinois
Current Conditions -  °F | °C
As of 4:55 AM on Friday 31 Oct 2014 (Local Time) from KALN Reporting Station
Overcast Overcast  
Wind Chill:   Ceiling: 7000
Heat Index:   Visibility: 7mi
Dew Point:   Wind: 3mph
Humidity: 87%   Direction: 310°NW
Pressure: 30.11"   Gusts: NA
Location:  38.89°N, 89.73°W
Report Text: KALN 310955Z AUTO 31003KT 7SM SCT060 BKN070 OVC110 08/06 A3011 RMK AO2 T00770057
Loading
Personal Weather Stations






























Interactive Weather Map
Tropical Storm Tracking
New forecast layout! Learn more

10-Day Weather Forecast

Advertisements
Track Severe Weather on mobile